• Join FlightAware (Why Join?)
  • Login
  • US Flag 
03:59AM EDT


 

Airport Tracker/Info


-or-


 

Live Flight TrackerFlight Track Log ✈ AWE997 ✈ 28-Apr-2013 ✈ KORD - KPHL

Flight Track Log - Related Links

Times and Time Zones

All times are in EDT time to prevent confusion due to time zone crossing. See the AWE997 flight status page for this flight to view local times or setup timezone preferences in your user account.

Time Position Orientation Groundspeed Altitude Reporting Facility
EDT Latitude Longitude Course Direction KTS MPH feet Rate Location/Type
11:05AM 41.9167 -87.8833 85° East 204 235 3,100  Level Chicago TRACON
11:06AM 41.9167 -87.8000 90° East 248 285 4,800 660 Climbing Chicago TRACON
11:07AM 41.9551 -87.4221 97° East  Level FlightAware Approximate
11:08AM 41.9427 -87.2634 95° East  Level FlightAware Approximate
11:08AM 41.9225 -87.6303 87° East 262 302 5,000  Level Chicago Center
11:09AM 41.9333 -87.1045 90° East  Level FlightAware Approximate
11:09AM 41.9261 -87.5289 87° East 268 308 6,500  Level Chicago Center
11:10AM 41.9333 -86.9450 90° East  Level FlightAware Approximate
11:10AM 41.9300 -87.4231 87° East 282 325 9,400  Level Chicago Center
11:11AM 41.9385 -86.7897 85° East  Level FlightAware Approximate
11:11AM 41.9372 -87.2953 86° East 286 329 12,500  Level Chicago Center
11:12AM 41.9431 -87.1772 86° East 308 354 13,800 1,500 Climbing Chicago Center
11:13AM 41.9483 -87.0397 87° East 356 410 15,600 1,860 Climbing Chicago Center
11:14AM 41.9486 -86.8972 90° East 377 434 17,700 1,920 Climbing Chicago Center
11:15AM 41.9511 -86.7533 89° East 386 444 19,600 1,800 Climbing Chicago Center
11:16AM 41.9514 -86.6022 90° East 395 455 21,400 1,560 Climbing Chicago Center
11:17AM 41.9531 -86.4519 89° East 403 464 22,900 720 Climbing Chicago Center
11:18AM 41.9553 -86.3008 89° East 403 464 23,000 600 Climbing Chicago Center
11:19AM 41.9497 -86.1464 93° East 414 476 24,200 1,320 Climbing Chicago Center
11:20AM 41.9319 -85.9592 97° East 421 484 25,800 1,260 Climbing Chicago Center
11:21AM 41.9169 -85.7972 97° East 432 497 26,900 1,020 Climbing Chicago Center
11:22AM 41.9011 -85.6336 97° East 441 507 28,000 1,020 Climbing Chicago Center
11:23AM 41.8853 -85.4650 97° East 451 519 29,000 900 Climbing Chicago Center
11:24AM 41.8683 -85.2944 98° East 455 524 29,900 1,020 Climbing Chicago Center
11:25AM 41.8536 -85.1194 96° East 453 521 31,100 1,140 Climbing Cleveland Center
11:26AM 41.8347 -84.9564 99° East 453 521 32,300 1,200 Climbing Cleveland Center
11:27AM 41.8161 -84.7878 98° East 453 521 33,500 840 Climbing Cleveland Center
11:28AM 41.8011 -84.6253 97° East 446 513 34,000 660 Climbing Cleveland Center
11:29AM 41.7819 -84.4569 99° East 446 513 34,900 720 Climbing Cleveland Center
11:30AM 41.7792 -84.2842 91° East 451 519 35,500 780 Climbing Cleveland Center
11:31AM 41.7744 -84.1028 92° East 446 513 36,500 720 Climbing Cleveland Center
11:32AM 41.7733 -83.9383 90° East 446 513 37,000 240 Climbing Cleveland Center
11:33AM 41.7717 -83.7711 91° East 446 513 37,000  Level Cleveland Center
11:34AM 41.7681 -83.5983 92° East 446 513 37,000  Level Cleveland Center
11:35AM 41.7578 -83.4336 95° East 446 513 37,000  Level Cleveland Center
11:36AM 41.7431 -83.2631 97° East 446 513 37,000  Level Cleveland Center
11:37AM 41.7261 -83.0956 98° East 446 513 37,000  Level Cleveland Center
11:38AM 41.7067 -82.9306 99° East 451 519 37,000  Level Cleveland Center
11:39AM 41.6850 -82.7603 100° East 451 519 37,000  Level Cleveland Center
11:40AM 41.6417 -82.6225 113° Southeast 446 513 37,000  Level Cleveland Center
11:41AM 41.5942 -82.4739 113° Southeast 440 506 37,000  Level Cleveland Center
11:42AM 41.5444 -82.3200 113° Southeast 449 517 37,000  Level Cleveland Center
11:43AM 41.4944 -82.1717 114° Southeast 443 510 37,000  Level Cleveland Center
11:44AM 41.4444 -82.0208 114° Southeast 443 510 37,000  Level Cleveland Center
11:45AM 41.3900 -81.8564 114° Southeast 443 510 37,000  Level Cleveland Center
11:46AM 41.3456 -81.7172 113° Southeast 451 519 37,000  Level Cleveland Center
11:47AM 41.2950 -81.5642 114° Southeast 451 519 37,000  Level Cleveland Center
11:48AM 41.2439 -81.4144 114° Southeast 445 512 37,000  Level Cleveland Center
11:49AM 41.1908 -81.2675 116° Southeast 445 512 37,000  Level Cleveland Center
11:50AM 41.1375 -81.1125 115° Southeast 445 512 37,000  Level Cleveland Center
11:51AM 41.0900 -80.9633 113° Southeast 445 512 37,000  Level Cleveland Center
11:52AM 41.0364 -80.8117 115° Southeast 445 512 37,000  Level Cleveland Center
11:53AM 40.9864 -80.6656 114° Southeast 445 512 37,000  Level Cleveland Center
11:54AM 40.9322 -80.5117 115° Southeast 450 518 37,000  Level Cleveland Center
11:55AM 40.8758 -80.3553 115° Southeast 456 525 37,000  Level Cleveland Center
11:56AM 40.8150 -80.1853 115° Southeast 456 525 37,000  Level Cleveland Center
11:57AM 40.7600 -80.0322 115° Southeast 462 532 37,000  Level Cleveland Center
11:58AM 40.7092 -79.8900 115° Southeast 468 539 37,000  Level Cleveland Center
11:59AM 40.6539 -79.7375 115° Southeast 463 533 37,000  Level Cleveland Center
12:00PM 40.5964 -79.5822 116° Southeast 463 533 37,000  Level Cleveland Center
12:01PM 40.5614 -79.4133 105° East 469 540 37,000  Level Cleveland Center
12:02PM 40.5261 -79.2256 104° East 475 547 37,000 -300 Level Cleveland Center
12:03PM 40.4989 -79.0514 102° East 482 555 36,500 -720 Descending Cleveland Center
12:04PM 40.4692 -78.8772 103° East 482 555 35,600 -900 Descending Cleveland Center
12:05PM 40.4419 -78.7225 103° East 493 567 34,700 -1,200 Descending Cleveland Center
12:06PM 40.4139 -78.5461 102° East 487 560 33,300 -2,160 Descending Cleveland Center
12:07PM 40.3856 -78.3725 102° East 487 560 30,400 -2,520 Descending Cleveland Center
12:10PM 40.3133 -77.9631 103° East 475 547 25,100 -1,800 Descending New York Center
12:11PM 40.3025 -77.7958 95° East 469 540 24,400 -900 Descending New York Center
12:12PM 40.2856 -77.6228 97° East 469 540 23,400 -960 Descending New York Center
12:13PM 40.2642 -77.4519 99° East 474 545 22,500 -960 Descending New York Center
12:14PM 40.2444 -77.2814 99° East 469 540 21,500 -960 Descending New York Center
12:15PM 40.2233 -77.1353 101° East 464 534 20,600 -960 Descending New York Center
12:16PM 40.2047 -76.9731 98° East 457 526 19,700 -1,200 Descending New York Center
12:17PM 40.1878 -76.8167 98° East 443 510 18,300 -1,260 Descending New York Center
12:18PM 40.1669 -76.6519 99° East 428 493 17,200 -1,140 Descending New York Center
12:19PM 40.1472 -76.5036 100° East 409 471 16,100 -1,080 Descending New York Center
12:20PM 40.1306 -76.3744 100° East 387 445 15,100 -1,200 Descending New York Center
12:21PM 40.1192 -76.2622 98° East 352 405 13,800 -1,320 Descending New York Center
12:22PM 40.1100 -76.1419 96° East 344 396 12,500 -1,560 Descending New York Center
12:23PM 40.1028 -76.0247 95° East 306 352 10,700 -1,200 Descending New York Center
12:24PM 40.0950 -75.9158 95° East 295 339 10,100 -900 Descending New York Center
12:25PM 40.0864 -75.8256 97° East 295 339 9,000 -1,200 Descending New York Center
12:26PM 40.0786 -75.7136 95° East 285 328 7,800 -1,200 Descending New York Center
12:27PM 40.0742 -75.6239 94° East 275 316 6,600 -900 Descending New York Center
12:28PM 40.0700 -75.5178 93° East 275 316 6,100 -300 Descending New York Center
12:29PM 40.0633 -75.4250 95° East 275 316 6,100  Level New York Center
12:30PM 40.0589 -75.3297 93° East 256 295 6,100  Level New York Center
12:31PM 40.0497 -75.2425 98° East 240 276 6,100  Level New York Center
12:32PM 40.0339 -75.1628 105° East 230 265 6,100 -480 Level New York Center
12:33PM 40.0178 -75.0939 107° East 206 237 5,200 -1,020 Descending New York Center
12:33PM 40.0167 -75.0667 93° East 184 212 4,900 -1,200 Descending Philadelphia TRACON
12:34PM 40.0000 -75.0167 114° Southeast 191 220 3,800 -720 Descending Philadelphia TRACON
12:36PM 39.9167 -75.0167 180° South 186 214 3,000 -540 Descending Philadelphia TRACON
12:37PM 39.9000 -75.0833 252° West 187 215 2,300 -720 Descending Philadelphia TRACON